createdAt,value
2019-03-21T00:01:44.774Z,-0.2
2019-03-21T00:06:44.563Z,-0.3
2019-03-21T00:11:44.666Z,-0.3
2019-03-21T00:16:44.572Z,-0.4
2019-03-21T00:21:44.704Z,-0.4
2019-03-21T00:26:44.581Z,-0.4
2019-03-21T00:31:44.744Z,-0.4
2019-03-21T00:36:44.704Z,-0.5
2019-03-21T00:41:44.577Z,-0.6
2019-03-21T00:46:44.783Z,-0.7
2019-03-21T00:51:44.704Z,-0.7
2019-03-21T00:56:44.686Z,-0.8
2019-03-21T01:01:44.785Z,-0.8
2019-03-21T01:06:44.820Z,-0.9
2019-03-21T01:11:44.740Z,-0.9
2019-03-21T01:16:44.593Z,-1
2019-03-21T01:21:44.601Z,-1.1
2019-03-21T01:26:44.602Z,-1.1
2019-03-21T01:31:44.786Z,-1.1
2019-03-21T01:36:44.589Z,-1.1
2019-03-21T01:41:44.624Z,-1.2
2019-03-21T01:46:44.576Z,-1.2
2019-03-21T01:51:44.611Z,-1.3
2019-03-21T01:56:44.746Z,-1.3
2019-03-21T02:01:44.781Z,-1.4
2019-03-21T02:06:44.628Z,-1.4
2019-03-21T02:11:44.868Z,-1.4
2019-03-21T02:16:44.730Z,-1.5
2019-03-21T02:21:44.840Z,-1.5
2019-03-21T02:26:44.860Z,-1.6
2019-03-21T02:31:44.645Z,-1.6
2019-03-21T02:36:44.831Z,-1.7
2019-03-21T02:41:44.768Z,-1.7
2019-03-21T02:46:44.782Z,-1.7
2019-03-21T02:51:44.772Z,-1.7
2019-03-21T02:56:44.861Z,-1.8
2019-03-21T03:01:44.844Z,-1.8
2019-03-21T03:06:44.814Z,-1.8
2019-03-21T03:11:44.873Z,-1.9
2019-03-21T03:16:44.777Z,-1.9
2019-03-21T03:21:44.825Z,-1.9
2019-03-21T03:26:44.675Z,-2
2019-03-21T03:31:44.786Z,-2
2019-03-21T03:36:44.662Z,-2
2019-03-21T03:41:44.672Z,-2.1
2019-03-21T03:46:44.671Z,-2.1
2019-03-21T03:51:44.821Z,-2.2
2019-03-21T03:56:44.673Z,-2.2
2019-03-21T04:01:44.897Z,-2.3
2019-03-21T04:06:44.681Z,-2.2
2019-03-21T04:11:44.880Z,-2.2
2019-03-21T04:16:44.670Z,-2.3
2019-03-21T04:21:44.698Z,-2.3
2019-03-21T04:26:44.703Z,-2.3
2019-03-21T04:31:44.648Z,-2.4
2019-03-21T04:36:44.705Z,-2.5
2019-03-21T04:41:44.843Z,-2.5
2019-03-21T04:46:44.664Z,-2.5
2019-03-21T04:51:44.931Z,-2.5
2019-03-21T04:56:44.857Z,-2.5
2019-03-21T05:01:44.721Z,-2.5
2019-03-21T05:06:44.673Z,-2.6
2019-03-21T05:11:44.969Z,-2.6
2019-03-21T05:16:44.901Z,-2.6
2019-03-21T05:21:44.946Z,-2.6
2019-03-21T05:26:44.723Z,-2.6
2019-03-21T05:31:44.725Z,-2.6
2019-03-21T05:36:44.942Z,-2.5
2019-03-21T05:41:44.750Z,-2.5
2019-03-21T05:46:44.720Z,-2.3
2019-03-21T05:51:44.742Z,-2.2
2019-03-21T05:56:44.743Z,-2.1
2019-03-21T06:01:44.866Z,-2
2019-03-21T06:06:44.752Z,-1.7
2019-03-21T06:11:44.979Z,-1.4
2019-03-21T06:16:44.733Z,-1.2
2019-03-21T06:21:44.941Z,-0.9
2019-03-21T06:26:44.975Z,-0.6
2019-03-21T06:31:44.889Z,-0.2
2019-03-21T06:36:44.890Z,0
2019-03-21T06:41:44.995Z,0.3
2019-03-21T06:46:49.561Z,0.5
2019-03-21T06:51:44.891Z,0.8
2019-03-21T06:56:44.798Z,1
2019-03-21T07:01:44.960Z,1.3
2019-03-21T07:06:44.927Z,1.6
2019-03-21T07:11:44.785Z,1.8
2019-03-21T07:16:44.781Z,2
2019-03-21T07:21:44.783Z,2.4
2019-03-21T07:26:44.775Z,2.6
2019-03-21T07:31:45.019Z,3
2019-03-21T07:36:44.932Z,3.2
2019-03-21T07:41:44.791Z,3.4
2019-03-21T07:46:44.789Z,3.8
2019-03-21T07:51:45.219Z,4
2019-03-21T07:56:44.809Z,4.3
2019-03-21T08:01:44.808Z,4.6
2019-03-21T08:06:45.045Z,4.7
2019-03-21T08:11:44.824Z,4.9
2019-03-21T08:16:44.819Z,5.2
2019-03-21T08:21:44.994Z,5.4
2019-03-21T08:26:44.967Z,5.6
2019-03-21T08:31:45.011Z,5.7
2019-03-21T08:36:45.058Z,6
2019-03-21T08:41:44.968Z,6.2
2019-03-21T08:46:44.821Z,6.5
2019-03-21T08:51:45.055Z,6.8
2019-03-21T08:56:44.931Z,7.1
2019-03-21T09:01:44.847Z,7.3
2019-03-21T09:06:44.850Z,7.3
2019-03-21T09:11:44.969Z,7.4
2019-03-21T09:16:45.011Z,7.5
2019-03-21T09:21:44.853Z,7.8
2019-03-21T09:26:45.087Z,8.1
2019-03-21T09:31:45.002Z,8.2
2019-03-21T09:36:44.848Z,8.5
2019-03-21T09:41:44.862Z,8.6
2019-03-21T09:46:50.626Z,8.8
2019-03-21T09:51:44.878Z,9
2019-03-21T09:56:45.102Z,9.2
2019-03-21T10:01:45.004Z,9.4
2019-03-21T10:06:44.994Z,9.5
2019-03-21T10:11:45.086Z,9.7
2019-03-21T10:16:44.894Z,9.8
2019-03-21T10:21:44.881Z,9.9
2019-03-21T10:26:44.902Z,10
2019-03-21T10:31:45.008Z,10.2
2019-03-21T10:36:45.041Z,10.2
2019-03-21T10:41:45.103Z,10.2
2019-03-21T10:46:44.908Z,10.4
2019-03-21T10:51:54.322Z,10.5
2019-03-21T10:56:45.015Z,10.7
2019-03-21T11:01:44.894Z,10.7
2019-03-21T11:06:44.905Z,10.7
2019-03-21T11:11:44.909Z,10.8
2019-03-21T11:16:44.917Z,10.9
2019-03-21T11:21:44.871Z,11
2019-03-21T11:26:44.903Z,11.1
2019-03-21T11:31:44.912Z,11.3
2019-03-21T11:36:44.918Z,11.3
2019-03-21T11:41:45.081Z,11.4
2019-03-21T11:46:45.148Z,11.6
2019-03-21T11:51:45.174Z,11.7
2019-03-21T11:56:45.080Z,11.7
2019-03-21T12:01:44.934Z,11.8
2019-03-21T12:06:44.995Z,11.9
2019-03-21T12:11:44.926Z,12
2019-03-21T12:16:44.921Z,12.1
2019-03-21T12:21:45.178Z,12.3
2019-03-21T12:26:45.082Z,12.3
2019-03-21T12:31:44.948Z,12.4
2019-03-21T12:36:45.159Z,12.4
2019-03-21T12:41:45.082Z,12.5
2019-03-21T12:46:44.961Z,12.6
2019-03-21T12:51:45.927Z,12.8
2019-03-21T12:56:45.087Z,12.8
2019-03-21T13:01:45.130Z,12.9
2019-03-21T13:06:45.164Z,13
2019-03-21T13:11:45.177Z,13
2019-03-21T13:16:44.958Z,13.1
2019-03-21T13:21:45.174Z,13.2
2019-03-21T13:26:45.088Z,13.3
2019-03-21T13:31:44.980Z,13.2
2019-03-21T13:36:45.131Z,13.3
2019-03-21T13:41:45.158Z,13.4
2019-03-21T13:46:45.120Z,13.3
2019-03-21T13:51:44.984Z,13.3
2019-03-21T13:56:45.211Z,13.4
2019-03-21T14:01:45.087Z,13.4
2019-03-21T14:06:45.154Z,13.3
2019-03-21T14:11:45.135Z,13.3
2019-03-21T14:16:45.303Z,13.3
2019-03-21T14:21:45.184Z,13.3
2019-03-21T14:26:45.215Z,13.4
2019-03-21T14:31:45.233Z,13.3
2019-03-21T14:36:45.039Z,13.3
2019-03-21T14:41:45.218Z,13.3
2019-03-21T14:46:45.019Z,13.2
2019-03-21T14:51:45.158Z,13.2
2019-03-21T14:56:45.017Z,13.1
2019-03-21T15:01:45.024Z,13.1
2019-03-21T15:06:45.087Z,13.1
2019-03-21T15:11:45.314Z,13
2019-03-21T15:16:45.024Z,13
2019-03-21T15:21:45.034Z,13
2019-03-21T15:26:45.162Z,12.9
2019-03-21T15:31:45.037Z,12.8
2019-03-21T15:36:45.035Z,12.8
2019-03-21T15:41:45.097Z,12.7
2019-03-21T15:46:45.071Z,12.6
2019-03-21T15:51:45.281Z,12.6
2019-03-21T15:56:45.064Z,12.6
2019-03-21T16:01:45.015Z,12.5
2019-03-21T16:06:45.059Z,12.4
2019-03-21T16:11:45.059Z,12.3
2019-03-21T16:16:45.054Z,12.2
2019-03-21T16:21:45.092Z,12.1
2019-03-21T16:26:45.081Z,12
2019-03-21T16:31:45.075Z,11.9
2019-03-21T16:36:45.067Z,11.8
2019-03-21T16:41:45.086Z,11.6
2019-03-21T16:46:45.073Z,11.5
2019-03-21T16:51:45.099Z,11.4
2019-03-21T16:56:45.066Z,11.2
2019-03-21T17:01:45.087Z,11.1
2019-03-21T17:06:45.118Z,10.9
2019-03-21T17:11:45.051Z,10.8
2019-03-21T17:16:45.108Z,10.7
2019-03-21T17:21:45.097Z,10.6
2019-03-21T17:26:45.104Z,10.5
2019-03-21T17:31:45.113Z,10.3
2019-03-21T17:36:45.179Z,10.2
2019-03-21T17:41:45.134Z,10
2019-03-21T17:46:45.134Z,9.9
2019-03-21T17:51:46.874Z,9.8
2019-03-21T17:56:45.102Z,9.8
2019-03-21T18:01:45.355Z,9.7
2019-03-21T18:06:45.131Z,9.6
2019-03-21T18:11:45.134Z,9.5
2019-03-21T18:16:45.359Z,9.3
2019-03-21T18:21:45.076Z,9.2
2019-03-21T18:26:45.336Z,9.2
2019-03-21T18:31:45.236Z,9.1
2019-03-21T18:36:45.137Z,9.1
2019-03-21T18:41:45.333Z,9.1
2019-03-21T18:46:45.302Z,9.1
2019-03-21T18:51:45.154Z,9
2019-03-21T18:56:45.144Z,9
2019-03-21T19:01:45.176Z,8.9
2019-03-21T19:06:45.188Z,9
2019-03-21T19:11:45.183Z,8.9
2019-03-21T19:16:45.178Z,8.8
2019-03-21T19:21:45.198Z,8.8
2019-03-21T19:26:45.198Z,8.7
2019-03-21T19:31:45.193Z,8.6
2019-03-21T19:36:45.141Z,8.6
2019-03-21T19:41:45.194Z,8.5
2019-03-21T19:46:45.224Z,8.4
2019-03-21T19:51:45.129Z,8.4
2019-03-21T19:56:45.183Z,8.3
2019-03-21T20:01:45.188Z,8.3
2019-03-21T20:06:45.203Z,8.2
2019-03-21T20:11:45.178Z,8
2019-03-21T20:16:45.296Z,7.9
2019-03-21T20:21:47.974Z,7.8
2019-03-21T20:26:45.246Z,7.6
2019-03-21T20:31:45.210Z,7.5
2019-03-21T20:36:45.188Z,7.3
2019-03-21T20:41:45.263Z,7.1
2019-03-21T20:46:45.233Z,6.8
2019-03-21T20:51:45.204Z,6.6
2019-03-21T20:56:45.547Z,6.5
2019-03-21T21:01:45.234Z,6.2
2019-03-21T21:06:45.208Z,6
2019-03-21T21:11:45.224Z,5.8
2019-03-21T21:16:45.245Z,5.6
2019-03-21T21:21:45.218Z,5.5
2019-03-21T21:26:45.232Z,5.4
2019-03-21T21:31:45.217Z,5.2
2019-03-21T21:36:45.236Z,5.1
2019-03-21T21:41:45.214Z,4.9
2019-03-21T21:46:45.222Z,4.8
2019-03-21T21:51:45.228Z,4.7
2019-03-21T21:56:45.223Z,4.6
2019-03-21T22:01:45.237Z,4.5
2019-03-21T22:06:45.253Z,4.4
2019-03-21T22:11:45.247Z,4.3
2019-03-21T22:16:45.233Z,4.2
2019-03-21T22:21:45.252Z,4.1
2019-03-21T22:26:45.247Z,4
2019-03-21T22:31:45.537Z,3.8
2019-03-21T22:36:49.450Z,3.7
2019-03-21T22:41:45.248Z,3.6
2019-03-21T22:46:45.271Z,3.5
2019-03-21T22:51:45.252Z,3.4
2019-03-21T22:56:45.257Z,3.4
2019-03-21T23:01:45.475Z,3.3
2019-03-21T23:06:45.406Z,3.2
2019-03-21T23:11:45.432Z,3.1
2019-03-21T23:16:45.264Z,3
2019-03-21T23:21:45.397Z,3
2019-03-21T23:26:52.639Z,2.9
2019-03-21T23:31:45.394Z,2.8
2019-03-21T23:36:45.361Z,2.7
2019-03-21T23:41:45.280Z,2.6
2019-03-21T23:46:45.476Z,2.6
2019-03-21T23:51:45.270Z,2.5
2019-03-21T23:56:45.279Z,2.4
